OMSJ/SHJ METAR and TAF weather

Enter ICAO airport designator
Station Type Date Time Source
OMSJ METAR 2018/12/15 03:00 UTC NOAA

OMSJ 150300Z 09004KT CAVOK 17/14 Q1021


Station Type Date Time Source
OMSJ Decoded METAR 2018/12/15 03:00 UTC NOAA

Sharjah International Airport, United Arab Emirates (OMSJ) 25-20N 055-31E 33M
Dec 14, 2018 - 10:00 PM EST / 2018.12.15 0300 UTC
Wind: from the E (090 degrees) at 5 MPH (4 KT):0
Visibility: greater than 7 mile(s):0
Temperature: 62 F (17 C)
Dew Point: 57 F (14 C)
Relative Humidity: 82%
Pressure (altimeter): 30.15 in. Hg (1021 hPa)
ob: OMSJ 150300Z 09004KT CAVOK 17/14 Q1021
cycle: 3

Station Type Date Time Source
OMSJ TAF 2018/12/14 18:01 UTC NOAA

TAF OMSJ 141654Z 1418/1600 07005KT 8000 FEW035
BECMG 1508/1510 35010KT PROB30
TEMPO 1508/1515 VRB15G30KT 3000 BLDU FEW035TCU
BECMG 1514/1516 06005KT


Example: see airport list